Main page
METAR-TAF:

METAR-TAF

Airports :

Homer Airport

Homer, Alaska, United States

latitude: 59-39N, longitude: 151-29W, elevation: 85 ft

Current weather observation

The report was made 37 minutes ago, at 08:53 UTC
Wind 3 mph from the North/Northeast
Temperature 37°F
Humidity 93%
Pressure 29.19 in. Hg
Visibility: 10 miles
Clear sky

METAR: PAHO 240853Z AUTO 02003KT 10SM CLR 03/02 A2919 RMK AO2 SLP886 T00330022 400780033 53011 TSNO

Time: 01:30 (09:30 UTC)

Forecast

The report was made 4 hours and 7 minutes ago, at 05:23 UTC
Forecast valid from 24 at 06 UTC to 25 at 06 UTC
Wind 8 mph from the Southwest
Visibility: 6 miles
Scattered clouds at a height of 2500 ft
Broken clouds at a height of 5000 ft

TAF: PAHO 240523Z 2406/2506 23007KT P6SM SCT025 BKN050

Weather observations and forecasts of more than 4000 airports (METAR and TAF reports).

The available stations are represented by yellow and red dots on the map.

Hover mouse over dot to see the name of the station.

Then click to see weather observations and forecasts.

To change the map : click on the green buttons with a black cross to zoom in, on the green button with a dash to zoom out, or on the green arrows for adjacent maps.


METAR-TAF: